Check out our new BloomSky Weather System.

Active alerts


No alerts


Thunder radar  blitzortung!


Rain radar more information rain snow radar


Visit our other weather sites:

Template documentation
and downloads

And another site



Weather Underground History page Text

Daily Summary for July 4, 2017 Units:  English    Metric   Both
« Previous Day
Next Day »
Daily Weekly Monthly Yearly Custom
  High: Low: Average:
Temperature: 96.8 °F 79.0 °F 87.1 °F
Dew Point: 79.7 °F 74.5 °F 77.1 °F
Humidity: 94 % 50 % 74 %
Wind Speed: 11.0 mph 0.0 mph 3.5 mph
Wind Gust: 15.0 mph - -
Wind:- - SSE
Pressure: 30.04 in 29.91 in -
Precipitation: 0.00 in    
Historical Graphs
 
 
Tabular Data for July 4, 2017
Time Temperature Dew Point Pressure Wind Wind Speed Wind Gust Humidity Rainfall Rate (Hourly)
00:04 82.8 °F 78.1 °F 29.97 in SSE 6.0 mph 12.0 mph 86 % 0.00 in
00:09 82.8 °F 78.4 °F 29.97 in SE 3.0 mph 8.0 mph 87 % 0.00 in
00:14 82.6 °F 78.3 °F 29.97 in South 3.0 mph 8.0 mph 87 % 0.00 in
00:19 82.6 °F 78.3 °F 29.97 in SSW 4.0 mph 8.0 mph 87 % 0.00 in
00:24 82.4 °F 78.1 °F 29.98 in SE 2.0 mph 8.0 mph 87 % 0.00 in
00:29 82.4 °F 78.1 °F 29.98 in SSE 5.0 mph 8.0 mph 87 % 0.00 in
00:34 82.4 °F 78.1 °F 29.98 in SE 2.0 mph 6.0 mph 87 % 0.00 in
00:39 82.4 °F 78.1 °F 29.98 in SSE 4.0 mph 6.0 mph 87 % 0.00 in
00:44 82.4 °F 78.1 °F 29.98 in SSE 2.0 mph 6.0 mph 87 % 0.00 in
00:49 82.4 °F 78.1 °F 29.98 in South 6.0 mph 6.0 mph 87 % 0.00 in
00:54 82.4 °F 78.4 °F 29.98 in South 3.0 mph 7.0 mph 88 % 0.00 in
00:59 82.4 °F 78.4 °F 29.99 in South 2.0 mph 7.0 mph 88 % 0.00 in
01:04 82.4 °F 78.4 °F 29.99 in SSE 3.0 mph 7.0 mph 88 % 0.00 in
01:09 82.6 °F 78.6 °F 29.99 in South 2.0 mph 7.0 mph 88 % 0.00 in
01:15 82.6 °F 78.6 °F 29.99 in SSE 1.0 mph 6.0 mph 88 % 0.00 in
01:20 82.6 °F 78.6 °F 29.99 in SSW 2.0 mph 6.0 mph 88 % 0.00 in
01:25 82.6 °F 78.6 °F 29.99 in SSE 3.0 mph 6.0 mph 88 % 0.00 in
01:30 82.6 °F 78.6 °F 29.99 in SSE 3.0 mph 5.0 mph 88 % 0.00 in
01:35 82.6 °F 78.6 °F 29.99 in SSW 2.0 mph 6.0 mph 88 % 0.00 in
01:40 82.4 °F 78.4 °F 29.99 in South 3.0 mph 8.0 mph 88 % 0.00 in
01:45 82.2 °F 78.3 °F 29.99 in SSW 3.0 mph 8.0 mph 88 % 0.00 in
01:50 82.2 °F 78.3 °F 29.99 in SSE 3.0 mph 8.0 mph 88 % 0.00 in
01:55 82.2 °F 78.3 °F 29.99 in SE 3.0 mph 8.0 mph 88 % 0.00 in
02:00 82.2 °F 78.3 °F 29.99 in SE 1.0 mph 8.0 mph 88 % 0.00 in
02:05 82.0 °F 78.4 °F 30.00 in SSE 3.0 mph 8.0 mph 89 % 0.00 in
02:10 82.0 °F 78.4 °F 30.00 in SSW 2.0 mph 7.0 mph 89 % 0.00 in
02:15 82.0 °F 78.4 °F 30.00 in South 2.0 mph 5.0 mph 89 % 0.00 in
02:20 82.0 °F 78.4 °F 30.00 in South 1.0 mph 5.0 mph 89 % 0.00 in
02:25 81.9 °F 78.3 °F 30.00 in South 2.0 mph 6.0 mph 89 % 0.00 in
02:26 81.9 °F 78.3 °F 30.00 in SSW 2.0 mph 6.0 mph 89 % 0.00 in
02:31 81.9 °F 78.3 °F 29.99 in SSE 1.0 mph 6.0 mph 89 % 0.00 in
02:36 81.9 °F 78.3 °F 30.00 in SSE 1.0 mph 6.0 mph 89 % 0.00 in
02:41 81.9 °F 78.3 °F 30.00 in SE 1.0 mph 4.0 mph 89 % 0.00 in
02:46 81.9 °F 78.3 °F 29.99 in SE 3.0 mph 4.0 mph 89 % 0.00 in
02:51 81.7 °F 78.1 °F 29.99 in South 3.0 mph 4.0 mph 89 % 0.00 in
02:56 81.7 °F 78.1 °F 29.99 in South 3.0 mph 5.0 mph 89 % 0.00 in
03:01 81.7 °F 78.1 °F 29.99 in SSE 4.0 mph 5.0 mph 89 % 0.00 in
03:06 81.7 °F 78.1 °F 29.99 in ESE 4.0 mph 5.0 mph 89 % 0.00 in
03:11 81.7 °F 78.1 °F 29.99 in South 2.0 mph 6.0 mph 89 % 0.00 in
03:16 81.5 °F 77.9 °F 29.99 in SSW 3.0 mph 6.0 mph 89 % 0.00 in
03:21 81.3 °F 78.1 °F 29.99 in SSW 3.0 mph 6.0 mph 90 % 0.00 in
03:26 81.3 °F 78.1 °F 29.99 in SSE 2.0 mph 6.0 mph 90 % 0.00 in
03:31 81.3 °F 78.1 °F 29.99 in SSE 1.0 mph 6.0 mph 90 % 0.00 in
03:36 81.3 °F 78.1 °F 29.98 in SE 1.0 mph 6.0 mph 90 % 0.00 in
03:41 81.1 °F 77.9 °F 29.98 in South 3.0 mph 6.0 mph 90 % 0.00 in
03:46 81.1 °F 77.9 °F 29.98 in SE 2.0 mph 6.0 mph 90 % 0.00 in
03:51 81.1 °F 77.9 °F 29.98 in SSW 2.0 mph 6.0 mph 90 % 0.00 in
03:56 81.0 °F 77.7 °F 29.98 in SSE 1.0 mph 6.0 mph 90 % 0.00 in
04:01 81.0 °F 77.7 °F 29.98 in SSW 2.0 mph 5.0 mph 90 % 0.00 in
04:06 81.0 °F 77.7 °F 29.98 in SSE 2.0 mph 5.0 mph 90 % 0.00 in
04:11 80.8 °F 77.5 °F 29.97 in SSW 3.0 mph 5.0 mph 90 % 0.00 in
04:16 80.8 °F 77.5 °F 29.97 in ESE 1.0 mph 5.0 mph 90 % 0.00 in
04:21 80.8 °F 77.5 °F 29.98 in Calm   5.0 mph 90 % 0.00 in
04:26 80.6 °F 77.7 °F 29.97 in SE 3.0 mph 5.0 mph 91 % 0.00 in
04:31 80.6 °F 77.7 °F 29.97 in South 2.0 mph 5.0 mph 91 % 0.00 in
04:36 80.4 °F 77.5 °F 29.97 in Calm   5.0 mph 91 % 0.00 in
04:41 80.4 °F 77.5 °F 29.97 in Calm   4.0 mph 91 % 0.00 in
04:46 80.2 °F 77.4 °F 29.97 in South 2.0 mph 5.0 mph 91 % 0.00 in
04:51 80.2 °F 77.4 °F 29.97 in South 3.0 mph 5.0 mph 91 % 0.00 in
04:56 80.1 °F 77.2 °F 29.97 in SSE 1.0 mph 5.0 mph 91 % 0.00 in
05:01 80.1 °F 77.5 °F 29.97 in SSE 1.0 mph 4.0 mph 92 % 0.00 in
05:06 80.1 °F 77.5 °F 29.97 in SE 2.0 mph 4.0 mph 92 % 0.00 in
05:11 80.1 °F 77.5 °F 29.97 in Calm   4.0 mph 92 % 0.00 in
05:16 79.9 °F 77.4 °F 29.97 in South 1.0 mph 4.0 mph 92 % 0.00 in
05:21 79.9 °F 77.4 °F 29.97 in SE 1.0 mph 4.0 mph 92 % 0.00 in
05:26 79.9 °F 77.4 °F 29.97 in SSE 1.0 mph 3.0 mph 92 % 0.00 in
05:31 79.7 °F 77.2 °F 29.98 in SSW 1.0 mph 3.0 mph 92 % 0.00 in
05:36 79.5 °F 77.0 °F 29.98 in South 2.0 mph 3.0 mph 92 % 0.00 in
05:41 79.5 °F 77.0 °F 29.98 in SSW 1.0 mph 4.0 mph 92 % 0.00 in
05:46 79.5 °F 77.0 °F 29.99 in Calm   4.0 mph 92 % 0.00 in
05:51 79.5 °F 77.4 °F 29.98 in SSW 1.0 mph 4.0 mph 93 % 0.00 in
05:56 79.5 °F 77.4 °F 29.98 in SSE 2.0 mph 5.0 mph 93 % 0.00 in
06:01 79.5 °F 77.4 °F 29.99 in SSE 1.0 mph 5.0 mph 93 % 0.00 in
06:06 79.3 °F 77.2 °F 29.99 in Calm   5.0 mph 93 % 0.00 in
06:11 79.3 °F 77.2 °F 29.99 in South 1.0 mph 5.0 mph 93 % 0.00 in
06:16 79.3 °F 77.2 °F 30.00 in SSW 2.0 mph 3.0 mph 93 % 0.00 in
06:21 79.3 °F 77.2 °F 30.00 in SSE 1.0 mph 3.0 mph 93 % 0.00 in
06:26 79.3 °F 77.2 °F 30.01 in SE 1.0 mph 3.0 mph 93 % 0.00 in
06:31 79.2 °F 77.0 °F 30.01 in Calm   2.0 mph 93 % 0.00 in
06:36 79.2 °F 77.0 °F 30.01 in Calm   2.0 mph 93 % 0.00 in
06:41 79.0 °F 76.8 °F 30.02 in Calm   1.0 mph 93 % 0.00 in
06:51 79.0 °F 76.8 °F 30.02 in Calm     93 % 0.00 in
06:56 79.0 °F 76.8 °F 30.02 in Calm     93 % 0.00 in
07:01 79.0 °F 77.2 °F 30.02 in Calm     94 % 0.00 in
07:06 79.2 °F 77.4 °F 30.02 in Calm   2.0 mph 94 % 0.00 in
07:11 79.5 °F 77.7 °F 30.03 in Calm   2.0 mph 94 % 0.00 in
07:16 80.2 °F 78.4 °F 30.03 in Calm   2.0 mph 94 % 0.00 in
07:21 80.8 °F 78.6 °F 30.03 in Calm   1.0 mph 93 % 0.00 in
07:26 81.1 °F 78.6 °F 30.03 in Calm     92 % 0.00 in
07:31 81.5 °F 78.6 °F 30.03 in SSW 2.0 mph 2.0 mph 91 % 0.00 in
07:36 81.7 °F 78.4 °F 30.02 in South 3.0 mph 4.0 mph 90 % 0.00 in
07:41 82.0 °F 78.8 °F 30.03 in Calm   5.0 mph 90 % 0.00 in
07:46 82.6 °F 79.0 °F 30.03 in South 2.0 mph 5.0 mph 89 % 0.00 in
07:51 82.8 °F 78.8 °F 30.03 in Calm   5.0 mph 88 % 0.00 in
07:56 82.9 °F 79.0 °F 30.04 in ESE 3.0 mph 4.0 mph 88 % 0.00 in
08:01 83.3 °F 79.0 °F 30.03 in South 4.0 mph 5.0 mph 87 % 0.00 in
08:06 83.7 °F 79.0 °F 30.03 in South 6.0 mph 6.0 mph 86 % 0.00 in
08:11 84.2 °F 79.5 °F 30.03 in South 1.0 mph 6.0 mph 86 % 0.00 in
08:16 84.6 °F 79.5 °F 30.03 in SSE 1.0 mph 6.0 mph 85 % 0.00 in
08:21 84.7 °F 79.0 °F 30.03 in SSW 6.0 mph 9.0 mph 83 % 0.00 in
08:26 84.7 °F 79.3 °F 30.03 in SSW 1.0 mph 9.0 mph 84 % 0.00 in
08:31 84.9 °F 79.2 °F 30.03 in SE 4.0 mph 9.0 mph 83 % 0.00 in
08:36 84.9 °F 78.8 °F 30.03 in SE 2.0 mph 8.0 mph 82 % 0.00 in
08:42 84.9 °F 78.8 °F 30.03 in WSW 4.0 mph 7.0 mph 82 % 0.00 in
08:46 85.1 °F 79.0 °F 30.03 in SSE 4.0 mph 9.0 mph 82 % 0.00 in
08:51 85.5 °F 79.3 °F 30.03 in SSW 3.0 mph 9.0 mph 82 % 0.00 in
08:57 86.2 °F 79.7 °F 30.04 in South 3.0 mph 9.0 mph 81 % 0.00 in
09:02 86.7 °F 79.3 °F 30.03 in East 4.0 mph 7.0 mph 79 % 0.00 in
09:07 87.1 °F 79.3 °F 30.04 in South 1.0 mph 9.0 mph 78 % 0.00 in
09:12 87.3 °F 79.2 °F 30.04 in SE 4.0 mph 9.0 mph 77 % 0.00 in
09:17 87.4 °F 79.0 °F 30.04 in Calm   9.0 mph 76 % 0.00 in
09:22 87.4 °F 78.6 °F 30.04 in SW 6.0 mph 9.0 mph 75 % 0.00 in
09:27 87.4 °F 78.6 °F 30.03 in South 7.0 mph 9.0 mph 75 % 0.00 in
09:32 87.3 °F 78.4 °F 30.03 in SSW 8.0 mph 9.0 mph 75 % 0.00 in
09:37 87.3 °F 77.9 °F 30.03 in SE 5.0 mph 13.0 mph 74 % 0.00 in
09:42 87.1 °F 77.4 °F 30.04 in South 6.0 mph 13.0 mph 73 % 0.00 in
09:47 87.3 °F 77.9 °F 30.04 in SSE 5.0 mph 13.0 mph 74 % 0.00 in
09:52 87.3 °F 77.5 °F 30.04 in SSW 8.0 mph 12.0 mph 73 % 0.00 in
09:57 87.6 °F 77.5 °F 30.04 in SW 5.0 mph 8.0 mph 72 % 0.00 in
10:02 87.6 °F 77.5 °F 30.04 in South 2.0 mph 8.0 mph 72 % 0.00 in
10:07 88.0 °F 77.4 °F 30.04 in SSE 3.0 mph 8.0 mph 71 % 0.00 in
10:12 88.3 °F 76.8 °F 30.04 in SW 4.0 mph 8.0 mph 69 % 0.00 in
10:17 88.5 °F 77.0 °F 30.04 in SSW 4.0 mph 8.0 mph 69 % 0.00 in
10:22 88.7 °F 77.7 °F 30.04 in SSE 4.0 mph 7.0 mph 70 % 0.00 in
10:27 89.2 °F 79.0 °F 30.04 in SSE 2.0 mph 7.0 mph 72 % 0.00 in
10:32 90.0 °F 78.4 °F 30.04 in Calm   7.0 mph 69 % 0.00 in
10:37 90.7 °F 77.7 °F 30.04 in South 3.0 mph 6.0 mph 66 % 0.00 in
10:42 90.3 °F 77.0 °F 30.04 in Calm   4.0 mph 65 % 0.00 in
10:47 89.8 °F 76.8 °F 30.04 in NW 4.0 mph 5.0 mph 66 % 0.00 in
10:52 89.4 °F 77.5 °F 30.04 in NW 3.0 mph 5.0 mph 68 % 0.00 in
10:57 89.4 °F 76.6 °F 30.04 in NW 1.0 mph 5.0 mph 66 % 0.00 in
11:02 89.8 °F 75.9 °F 30.03 in WSW 1.0 mph 4.0 mph 64 % 0.00 in
11:07 88.9 °F 75.6 °F 30.04 in NNW 9.0 mph 9.0 mph 65 % 0.00 in
11:12 86.2 °F 74.8 °F 30.04 in NW 4.0 mph 11.0 mph 69 % 0.00 in
11:17 85.5 °F 75.0 °F 30.03 in NW 4.0 mph 11.0 mph 71 % 0.00 in
11:22 85.6 °F 75.2 °F 30.03 in WNW 4.0 mph 11.0 mph 71 % 0.00 in
11:27 86.2 °F 76.1 °F 30.03 in North 6.0 mph 10.0 mph 72 % 0.00 in
11:32 86.5 °F 75.9 °F 30.03 in NW 2.0 mph 9.0 mph 71 % 0.00 in
11:37 87.1 °F 76.5 °F 30.02 in WNW 3.0 mph 8.0 mph 71 % 0.00 in
11:42 87.4 °F 76.5 °F 30.02 in NW 4.0 mph 7.0 mph 70 % 0.00 in
11:47 87.6 °F 76.1 °F 30.02 in NE 1.0 mph 6.0 mph 69 % 0.00 in
11:52 88.3 °F 76.5 °F 30.01 in NNE 1.0 mph 6.0 mph 68 % 0.00 in
11:57 89.1 °F 77.5 °F 30.01 in NW 1.0 mph 6.0 mph 69 % 0.00 in
12:02 89.1 °F 76.6 °F 30.01 in ENE 3.0 mph 6.0 mph 67 % 0.00 in
12:07 89.4 °F 77.5 °F 30.01 in Calm   6.0 mph 68 % 0.00 in
12:12 89.6 °F 77.2 °F 30.01 in ESE 3.0 mph 6.0 mph 67 % 0.00 in
12:17 89.6 °F 76.6 °F 30.01 in East 2.0 mph 6.0 mph 66 % 0.00 in
12:22 89.4 °F 77.9 °F 30.00 in NW 4.0 mph 6.0 mph 69 % 0.00 in
12:27 89.8 °F 78.6 °F 30.00 in North 1.0 mph 6.0 mph 70 % 0.00 in
12:32 90.7 °F 78.3 °F 30.00 in ENE 2.0 mph 6.0 mph 67 % 0.00 in
12:37 90.7 °F 77.4 °F 30.00 in SSE 3.0 mph 6.0 mph 65 % 0.00 in
12:42 91.0 °F 77.5 °F 30.00 in Calm   6.0 mph 65 % 0.00 in
12:47 91.6 °F 77.7 °F 30.00 in Calm   6.0 mph 64 % 0.00 in
12:52 92.3 °F 77.9 °F 30.00 in SE 3.0 mph 5.0 mph 63 % 0.00 in
12:57 93.0 °F 77.0 °F 29.99 in ENE 2.0 mph 6.0 mph 60 % 0.00 in
13:02 93.0 °F 77.5 °F 29.99 in NW 2.0 mph 6.0 mph 61 % 0.00 in
13:03 93.0 °F 77.5 °F 29.99 in NW 1.0 mph 6.0 mph 61 % 0.00 in
13:08 93.7 °F 78.3 °F 29.99 in East 1.0 mph 6.0 mph 61 % 0.00 in
13:13 93.7 °F 77.2 °F 29.99 in East 2.0 mph 5.0 mph 59 % 0.00 in
13:18 93.7 °F 77.7 °F 29.99 in ESE 10.0 mph 10.0 mph 60 % 0.00 in
13:23 93.4 °F 76.8 °F 29.98 in SSE 4.0 mph 11.0 mph 59 % 0.00 in
13:28 92.7 °F 76.8 °F 29.98 in SE 3.0 mph 11.0 mph 60 % 0.00 in
13:33 92.7 °F 76.8 °F 29.99 in SSW 2.0 mph 11.0 mph 60 % 0.00 in
13:38 92.7 °F 76.8 °F 29.98 in SE 5.0 mph 10.0 mph 60 % 0.00 in
13:43 93.4 °F 76.8 °F 29.98 in SE 7.0 mph 10.0 mph 59 % 0.00 in
13:48 93.7 °F 77.2 °F 29.98 in South 6.0 mph 10.0 mph 59 % 0.00 in
13:53 94.3 °F 76.6 °F 29.97 in Calm   10.0 mph 57 % 0.00 in
13:58 94.6 °F 76.5 °F 29.97 in SSE 9.0 mph 10.0 mph 56 % 0.00 in
14:03 95.0 °F 75.7 °F 29.97 in ENE 3.0 mph 10.0 mph 54 % 0.00 in
14:08 95.2 °F 75.9 °F 29.97 in SE 7.0 mph 10.0 mph 54 % 0.00 in
14:13 95.0 °F 76.3 °F 29.97 in South 4.0 mph 11.0 mph 55 % 0.00 in
14:18 95.4 °F 76.6 °F 29.97 in SSE 3.0 mph 11.0 mph 55 % 0.00 in
14:23 95.9 °F 74.8 °F 29.97 in ESE 8.0 mph 11.0 mph 51 % 0.00 in
14:28 96.1 °F 74.5 °F 29.96 in ESE 2.0 mph 12.0 mph 50 % 0.00 in
14:33 96.4 °F 75.4 °F 29.96 in South 9.0 mph 12.0 mph 51 % 0.00 in
14:38 96.1 °F 76.1 °F 29.96 in SE 6.0 mph 12.0 mph 53 % 0.00 in
14:43 96.1 °F 75.6 °F 29.96 in SSW 5.0 mph 11.0 mph 52 % 0.00 in
14:48 96.3 °F 76.3 °F 29.96 in SE 6.0 mph 11.0 mph 53 % 0.00 in
14:53 96.3 °F 75.2 °F 29.96 in SE 4.0 mph 11.0 mph 51 % 0.00 in
14:58 96.1 °F 75.0 °F 29.96 in SSE 3.0 mph 11.0 mph 51 % 0.00 in
15:03 95.5 °F 75.0 °F 29.96 in SE 5.0 mph 11.0 mph 52 % 0.00 in
15:08 95.9 °F 75.4 °F 29.96 in SSE 4.0 mph 11.0 mph 52 % 0.00 in
15:14 95.7 °F 75.2 °F 29.96 in North 3.0 mph 11.0 mph 52 % 0.00 in
15:19 95.4 °F 75.0 °F 29.96 in ESE 5.0 mph 10.0 mph 52 % 0.00 in
15:24 95.0 °F 75.2 °F 29.95 in East 8.0 mph 9.0 mph 53 % 0.00 in
15:29 94.8 °F 75.0 °F 29.95 in East 4.0 mph 11.0 mph 53 % 0.00 in
15:34 95.4 °F 75.0 °F 29.95 in South 7.0 mph 11.0 mph 52 % 0.00 in
15:39 95.5 °F 75.7 °F 29.95 in SE 8.0 mph 11.0 mph 53 % 0.00 in
15:44 95.9 °F 75.4 °F 29.94 in East 6.0 mph 11.0 mph 52 % 0.00 in
15:49 96.1 °F 75.0 °F 29.94 in ESE 8.0 mph 11.0 mph 51 % 0.00 in
15:54 96.3 °F 75.2 °F 29.94 in ESE 7.0 mph 11.0 mph 51 % 0.00 in
15:59 96.3 °F 75.2 °F 29.94 in SE 2.0 mph 11.0 mph 51 % 0.00 in
16:04 96.4 °F 75.4 °F 29.94 in SE 5.0 mph 9.0 mph 51 % 0.00 in
16:09 96.8 °F 75.7 °F 29.94 in SE 4.0 mph 9.0 mph 51 % 0.00 in
16:14 96.1 °F 75.6 °F 29.94 in ESE 9.0 mph 9.0 mph 52 % 0.00 in
16:19 95.4 °F 75.6 °F 29.94 in ESE 1.0 mph 11.0 mph 53 % 0.00 in
16:24 95.5 °F 76.3 °F 29.93 in SE 5.0 mph 11.0 mph 54 % 0.00 in
16:29 96.3 °F 75.7 °F 29.93 in SE 5.0 mph 11.0 mph 52 % 0.00 in
16:34 96.1 °F 74.5 °F 29.93 in East 6.0 mph 12.0 mph 50 % 0.00 in
16:39 95.9 °F 74.8 °F 29.93 in SSE 6.0 mph 12.0 mph 51 % 0.00 in
16:44 96.1 °F 74.5 °F 29.93 in South 4.0 mph 12.0 mph 50 % 0.00 in
16:49 96.1 °F 75.6 °F 29.93 in SE 4.0 mph 12.0 mph 52 % 0.00 in
16:54 96.1 °F 75.0 °F 29.92 in SSE 3.0 mph 12.0 mph 51 % 0.00 in
16:59 96.6 °F 75.6 °F 29.92 in SE 3.0 mph 9.0 mph 51 % 0.00 in
17:04 96.6 °F 76.1 °F 29.92 in SE 6.0 mph 8.0 mph 52 % 0.00 in
17:09 96.6 °F 76.1 °F 29.92 in SSE 7.0 mph 9.0 mph 52 % 0.00 in
17:14 96.4 °F 74.8 °F 29.92 in SE 6.0 mph 9.0 mph 50 % 0.00 in
17:19 95.7 °F 75.2 °F 29.92 in South 5.0 mph 9.0 mph 52 % 0.00 in
17:24 95.4 °F 76.6 °F 29.92 in ESE 9.0 mph 9.0 mph 55 % 0.00 in
17:29 94.8 °F 76.6 °F 29.92 in SSW 4.0 mph 10.0 mph 56 % 0.00 in
17:34 94.6 °F 75.4 °F 29.92 in SE 2.0 mph 10.0 mph 54 % 0.00 in
17:39 94.6 °F 74.8 °F 29.92 in SSE 2.0 mph 10.0 mph 53 % 0.00 in
17:44 94.5 °F 75.7 °F 29.91 in South 2.0 mph 8.0 mph 55 % 0.00 in
17:49 94.5 °F 77.4 °F 29.91 in SSE 3.0 mph 8.0 mph 58 % 0.00 in
17:54 95.2 °F 77.5 °F 29.91 in SE 3.0 mph 9.0 mph 57 % 0.00 in
17:59 95.4 °F 77.2 °F 29.91 in South 6.0 mph 10.0 mph 56 % 0.00 in
18:04 95.2 °F 77.0 °F 29.91 in SSE 2.0 mph 12.0 mph 56 % 0.00 in
18:09 94.8 °F 77.2 °F 29.91 in ESE 8.0 mph 12.0 mph 57 % 0.00 in
18:14 94.6 °F 77.5 °F 29.91 in SE 7.0 mph 12.0 mph 58 % 0.00 in
18:19 94.5 °F 77.4 °F 29.91 in South 7.0 mph 12.0 mph 58 % 0.00 in
18:24 94.3 °F 77.7 °F 29.91 in SSW 5.0 mph 12.0 mph 59 % 0.00 in
18:25 94.1 °F 77.5 °F 29.91 in SSW 5.0 mph 12.0 mph 59 % 0.00 in
18:30 93.6 °F 77.0 °F 29.91 in South 6.0 mph 12.0 mph 59 % 0.00 in
18:35 92.8 °F 76.8 °F 29.91 in SSE 5.0 mph 11.0 mph 60 % 0.00 in
18:40 92.7 °F 76.8 °F 29.91 in SSE 5.0 mph 11.0 mph 60 % 0.00 in
18:45 92.3 °F 76.8 °F 29.91 in SE 7.0 mph 12.0 mph 61 % 0.00 in
18:50 91.9 °F 76.6 °F 29.91 in SE 3.0 mph 12.0 mph 61 % 0.00 in
18:55 91.9 °F 77.0 °F 29.91 in South 8.0 mph 12.0 mph 62 % 0.00 in
18:57 91.8 °F 76.5 °F 29.91 in SE 4.0 mph 12.0 mph 61 % 0.00 in
19:02 91.8 °F 76.8 °F 29.91 in SSE 8.0 mph 11.0 mph 62 % 0.00 in
19:07 91.6 °F 76.6 °F 29.91 in SE 4.0 mph 11.0 mph 62 % 0.00 in
19:12 91.2 °F 76.8 °F 29.91 in East 6.0 mph 11.0 mph 63 % 0.00 in
19:17 91.2 °F 76.8 °F 29.92 in SSW 4.0 mph 12.0 mph 63 % 0.00 in
19:22 91.0 °F 76.6 °F 29.91 in SE 3.0 mph 12.0 mph 63 % 0.00 in
19:27 91.0 °F 76.6 °F 29.92 in SSE 7.0 mph 12.0 mph 63 % 0.00 in
19:32 90.9 °F 77.0 °F 29.92 in South 7.0 mph 12.0 mph 64 % 0.00 in
19:37 90.7 °F 76.8 °F 29.92 in SSE 4.0 mph 12.0 mph 64 % 0.00 in
19:42 90.5 °F 76.6 °F 29.92 in SE 10.0 mph 12.0 mph 64 % 0.00 in
19:47 90.3 °F 77.0 °F 29.92 in SSE 9.0 mph 14.0 mph 65 % 0.00 in
19:52 90.1 °F 76.8 °F 29.93 in SE 5.0 mph 14.0 mph 65 % 0.00 in
19:57 90.0 °F 77.0 °F 29.93 in SE 5.0 mph 14.0 mph 66 % 0.00 in
20:02 89.4 °F 77.0 °F 29.92 in SSE 8.0 mph 15.0 mph 67 % 0.00 in
20:03 89.4 °F 77.0 °F 29.93 in SSE 4.0 mph 15.0 mph 67 % 0.00 in
20:08 89.2 °F 77.4 °F 29.93 in SE 7.0 mph 15.0 mph 68 % 0.00 in
20:13 89.1 °F 77.2 °F 29.93 in ESE 8.0 mph 15.0 mph 68 % 0.00 in
20:18 88.7 °F 77.2 °F 29.94 in ESE 4.0 mph 13.0 mph 69 % 0.00 in
20:23 88.5 °F 77.0 °F 29.94 in South 6.0 mph 13.0 mph 69 % 0.00 in
20:28 88.3 °F 77.4 °F 29.94 in SSW 11.0 mph 13.0 mph 70 % 0.00 in
20:33 88.0 °F 77.4 °F 29.94 in SSE 10.0 mph 14.0 mph 71 % 0.00 in
20:38 87.6 °F 77.0 °F 29.94 in South 6.0 mph 14.0 mph 71 % 0.00 in
20:43 87.4 °F 76.8 °F 29.94 in South 6.0 mph 14.0 mph 71 % 0.00 in
20:48 87.3 °F 77.2 °F 29.95 in SE 8.0 mph 14.0 mph 72 % 0.00 in
20:53 87.1 °F 77.0 °F 29.95 in East 5.0 mph 15.0 mph 72 % 0.00 in
20:58 86.7 °F 77.0 °F 29.95 in SE 5.0 mph 15.0 mph 73 % 0.00 in
21:03 86.5 °F 76.8 °F 29.96 in SE 4.0 mph 15.0 mph 73 % 0.00 in
21:08 86.5 °F 77.2 °F 29.96 in SSE 4.0 mph 11.0 mph 74 % 0.00 in
21:13 86.2 °F 77.0 °F 29.96 in SSW 3.0 mph 11.0 mph 74 % 0.00 in
21:19 86.0 °F 76.8 °F 29.96 in SSW 3.0 mph 10.0 mph 74 % 0.00 in
21:24 85.6 °F 76.8 °F 29.96 in South 5.0 mph 10.0 mph 75 % 0.00 in
21:29 85.6 °F 76.8 °F 29.97 in South 4.0 mph 11.0 mph 75 % 0.00 in
21:34 85.5 °F 76.6 °F 29.97 in SE 7.0 mph 11.0 mph 75 % 0.00 in
21:39 85.3 °F 76.5 °F 29.97 in ESE 8.0 mph 12.0 mph 75 % 0.00 in
21:44 85.3 °F 76.8 °F 29.97 in South 4.0 mph 13.0 mph 76 % 0.00 in
21:49 84.9 °F 76.5 °F 29.98 in SSW 7.0 mph 13.0 mph 76 % 0.00 in
21:54 84.9 °F 76.5 °F 29.98 in SE 5.0 mph 13.0 mph 76 % 0.00 in
21:59 84.7 °F 76.3 °F 29.98 in SSE 7.0 mph 12.0 mph 76 % 0.00 in
22:04 84.7 °F 76.6 °F 29.98 in South 7.0 mph 12.0 mph 77 % 0.00 in
22:09 84.6 °F 76.5 °F 29.99 in SSE 3.0 mph 11.0 mph 77 % 0.00 in
22:14 84.4 °F 76.5 °F 29.99 in ESE 4.0 mph 11.0 mph 77 % 0.00 in
22:19 84.2 °F 76.3 °F 29.99 in SSE 3.0 mph 11.0 mph 77 % 0.00 in
22:24 84.0 °F 76.5 °F 29.99 in South 6.0 mph 9.0 mph 78 % 0.00 in
22:29 83.8 °F 76.3 °F 29.99 in SSE 7.0 mph 9.0 mph 78 % 0.00 in
22:34 83.8 °F 76.3 °F 29.99 in SSE 5.0 mph 9.0 mph 78 % 0.00 in
22:39 83.8 °F 76.3 °F 29.99 in SSE 4.0 mph 9.0 mph 78 % 0.00 in
22:44 83.7 °F 76.1 °F 29.99 in SSE 3.0 mph 9.0 mph 78 % 0.00 in
22:54 83.5 °F 76.3 °F 30.00 in SSE 4.0 mph 8.0 mph 79 % 0.00 in
22:59 83.3 °F 76.1 °F 30.00 in SSE 3.0 mph 8.0 mph 79 % 0.00 in
23:04 83.1 °F 76.3 °F 30.00 in SSE 3.0 mph 7.0 mph 80 % 0.00 in
23:09 82.9 °F 76.1 °F 30.00 in SSE 3.0 mph 7.0 mph 80 % 0.00 in
23:14 82.9 °F 76.5 °F 30.00 in SSE 1.0 mph 7.0 mph 81 % 0.00 in
23:19 82.8 °F 76.3 °F 30.00 in SSE 2.0 mph 6.0 mph 81 % 0.00 in
23:24 82.8 °F 76.3 °F 30.01 in SSE 2.0 mph 6.0 mph 81 % 0.00 in
23:29 82.6 °F 76.1 °F 30.01 in SE 1.0 mph 6.0 mph 81 % 0.00 in
23:34 82.6 °F 76.5 °F 30.01 in Calm   5.0 mph 82 % 0.00 in
23:39 82.2 °F 76.1 °F 30.01 in ESE 3.0 mph 5.0 mph 82 % 0.00 in
23:44 82.2 °F 76.5 °F 30.01 in SSE 3.0 mph 5.0 mph 83 % 0.00 in
23:49 82.2 °F 76.5 °F 30.01 in SSE 6.0 mph 6.0 mph 83 % 0.00 in
23:54 82.2 °F 76.5 °F 30.01 in SW 4.0 mph 6.0 mph 83 % 0.00 in
23:59 82.2 °F 76.5 °F 30.01 in SSW 3.0 mph 8.0 mph 83 % 0.00 in
Spring, Texas: Villages of Bridgestone
Compliments of Weather Underground - 2.75 mb

Script developed by  Jim McMurry - jmcmurry@mwt.net Adapted for the template by  Wim van der Kuil - Leuven-Template.eu

You find our weather info also at:

UK Metoffice

WeatherCloud

Weather Underground

Mid-South Weather Network

AWEKAS

Citizen Weather Observer Program (CWOP)

HAMweather, WeatherForYou, PWS Weather

Equipment we use:

Weather-station
Davis Vantage Vue

Weather-program
Meteohub

Weather-server
Debian 7.9 x86 (Guest)

Provider
DreamHost

Davis Vantage Vue

Meteohub

Debian 7.9 x86 (Guest)

DreamHost